Pagina principală
METAR-TAF:

METAR-TAF

Aeroporturi :

Tri-City Airport

Parsons, Kansas, Statele Unite ale Americii

Latitudine: 37-19-40N, longitudine: 095-30-15W, elevație: 274 m

Observații meteo curente

Raportul a fost făcut în urmă cu 24 de minute, la 20:52 UTC
Vânt 12 kt de la Sud cu rafale de până la 24 kt
Temperatură 36°C
Umiditate 45%
Presiune 1013 hPa
Vizibilitate: 16.1 km
Cer senin

METAR: KPPF 222052Z AUTO 19012G24KT 10SM CLR 36/22 A2990 RMK AO2 SLP114 T03560217 56018

Ora: 16:16 (21:16 UTC)


TAF: lipsă

Observații și prognoze meteo pentru peste 4.000 de aeroporturi (rapoarte METAR și TAF).

Stațiile disponibile sunt reprezentate pe hartă prin puncte galbene și roșii.

Țineți indicatorul mouse-ului pe punctul dorit pentru a vedea denumirea stației.

Apoi, faceți clic pentru a vedea observațiile și prognozele meteorologice.

Pentru a schimba harta: Pentru mărire, faceți clic pe butoanele verzi cu cruce neagră; pentru micșorare, pe butonul verde cu o liniuță; pentru hărți învecinate, pe săgețile verzi.


METAR-TAF: